Time;durP1;ratioP1;P1;durP2;ratioP2;P2;SDS_P1;SDS_P2;PMS_P1;PMS_P2;Temp;Humidity;BMP_temperature;BMP_pressure;BME280_temperature;BME280_humidity;BME280_pressure;Samples;Min_cycle;Max_cycle;Signal;HPM_P1;HPM_P2
2021/04/26 00:02:12;;;;;;;4.63;1.43;;;;;;;;;;5095838;28;20048;-77
2021/04/26 00:04:38;;;;;;;2.90;1.03;;;;;;;;;;5092330;28;20431;-77
2021/04/26 00:07:03;;;;;;;2.67;0.97;;;;;;;;;;5090510;28;20146;-77
2021/04/26 00:09:28;;;;;;;5.30;1.30;;;;;;;;;;5097814;28;20031;-77
2021/04/26 00:11:54;;;;;;;6.43;1.67;;;;;;;;;;5088737;28;20430;-77
2021/04/26 00:14:19;;;;;;;2.80;1.17;;;;;;;;;;5095657;28;20031;-77
2021/04/26 00:16:44;;;;;;;2.67;1.10;;;;;;;;;;5095130;28;20479;-75
2021/04/26 00:19:09;;;;;;;3.53;1.03;;;;;;;;;;5095196;28;20027;-75
2021/04/26 00:21:35;;;;;;;3.73;1.10;;;;;;;;;;5098234;28;20418;-75
2021/04/26 00:24:00;;;;;;;2.07;1.00;;;;;;;;;;5094339;28;20077;-75
2021/04/26 00:26:25;;;;;;;3.57;1.07;;;;;;;;;;5092314;28;20028;-75
2021/04/26 00:28:50;;;;;;;4.00;1.27;;;;;;;;;;5079633;28;20028;-75
2021/04/26 00:31:16;;;;;;;5.30;1.40;;;;;;;;;;5087238;28;20028;-76
2021/04/26 00:33:41;;;;;;;3.20;1.40;;;;;;;;;;5098065;28;20088;-76
2021/04/26 00:36:06;;;;;;;2.90;1.13;;;;;;;;;;5105488;28;20089;-77
2021/04/26 00:38:32;;;;;;;6.67;1.20;;;;;;;;;;5101471;28;20019;-77
2021/04/26 00:40:57;;;;;;;3.53;1.23;;;;;;;;;;5093897;28;20031;-77
2021/04/26 00:43:22;;;;;;;3.77;1.30;;;;;;;;;;5102999;28;20037;-77
2021/04/26 00:45:47;;;;;;;4.50;1.20;;;;;;;;;;5088203;28;20128;-77
2021/04/26 00:48:13;;;;;;;4.67;1.10;;;;;;;;;;5092896;28;20032;-77
2021/04/26 00:50:40;;;;;;;3.57;1.07;;;;;;;;;;5101618;28;20073;-77
2021/04/26 00:53:05;;;;;;;3.40;1.20;;;;;;;;;;5091155;28;20031;-77
2021/04/26 00:55:34;;;;;;;4.43;1.27;;;;;;;;;;5089922;28;20254;-77
2021/04/26 00:58:00;;;;;;;9.67;1.43;;;;;;;;;;5091665;28;20077;-77
2021/04/26 01:00:25;;;;;;;4.07;1.07;;;;;;;;;;5096004;28;20254;-77
2021/04/26 01:05:28;;;;;;;4.00;1.23;;;;;;;;;;5084431;28;20050;-67
2021/04/26 01:07:54;;;;;;;3.70;1.23;;;;;;;;;;5092264;28;20285;-67
2021/04/26 01:10:21;;;;;;;2.97;1.07;;;;;;;;;;5092079;28;20334;-67
2021/04/26 01:13:04;;;;;;;3.00;1.30;;;;;;;;;;5090843;28;20346;-67
2021/04/26 01:15:32;;;;;;;2.70;1.30;;;;;;;;;;5093148;28;20388;-67
2021/04/26 01:18:04;;;;;;;3.97;1.47;;;;;;;;;;5086762;28;20270;-67
2021/04/26 01:21:02;;;;;;;4.22;1.52;;;;;;;;;;5092541;28;20270;-67
2021/04/26 01:23:42;;;;;;;3.83;1.37;;;;;;;;;;5051546;28;20028;-67
2021/04/26 01:26:09;;;;;;;2.83;1.27;;;;;;;;;;5088311;28;20368;-67
2021/04/26 01:28:44;;;;;;;4.67;1.43;;;;;;;;;;5090356;28;20782;-67
2021/04/26 01:31:11;;;;;;;3.27;1.50;;;;;;;;;;5083189;28;20375;-67
2021/04/26 01:33:38;;;;;;;3.57;1.60;;;;;;;;;;5078036;28;20762;-67
2021/04/26 01:36:04;;;;;;;2.73;1.10;;;;;;;;;;5091648;28;20339;-67
2021/04/26 01:38:35;;;;;;;3.20;1.27;;;;;;;;;;5088401;28;20750;-67
2021/04/26 01:41:01;;;;;;;2.87;1.30;;;;;;;;;;5092786;28;20387;-66
2021/04/26 01:43:27;;;;;;;2.47;1.20;;;;;;;;;;5093485;28;20295;-67
2021/04/26 01:45:53;;;;;;;6.50;1.40;;;;;;;;;;5090986;28;20286;-66
2021/04/26 01:48:19;;;;;;;2.77;1.40;;;;;;;;;;5093124;28;20304;-66
2021/04/26 01:50:44;;;;;;;5.03;1.17;;;;;;;;;;5091502;28;20300;-66
2021/04/26 01:53:10;;;;;;;3.73;1.40;;;;;;;;;;5091622;28;20032;-67
2021/04/26 01:55:35;;;;;;;5.73;1.40;;;;;;;;;;5092334;28;20103;-66
2021/04/26 01:58:01;;;;;;;4.30;1.50;;;;;;;;;;5092216;28;20024;-66
2021/04/26 02:00:28;;;;;;;3.37;1.27;;;;;;;;;;5091904;28;20062;-67
2021/04/26 02:02:54;;;;;;;4.93;1.57;;;;;;;;;;5091204;28;20020;-67
2021/04/26 02:05:19;;;;;;;3.53;1.40;;;;;;;;;;5088354;28;20301;-67
2021/04/26 02:07:46;;;;;;;3.73;1.20;;;;;;;;;;5090806;28;20120;-67
2021/04/26 02:10:12;;;;;;;8.37;1.73;;;;;;;;;;5090255;28;20099;-67
2021/04/26 02:12:38;;;;;;;3.17;1.30;;;;;;;;;;5090985;28;20358;-67
2021/04/26 02:15:06;;;;;;;2.50;1.30;;;;;;;;;;5091220;28;20028;-67
2021/04/26 02:17:32;;;;;;;6.03;1.60;;;;;;;;;;5087278;28;20274;-67
2021/04/26 02:19:57;;;;;;;4.17;1.57;;;;;;;;;;5078080;28;20278;-67
2021/04/26 02:22:22;;;;;;;4.20;1.83;;;;;;;;;;5091665;28;20073;-67
2021/04/26 02:24:48;;;;;;;5.83;2.67;;;;;;;;;;5087745;28;20024;-67
2021/04/26 02:27:13;;;;;;;3.60;1.40;;;;;;;;;;5089774;28;20028;-67
2021/04/26 02:29:38;;;;;;;5.07;1.50;;;;;;;;;;5082103;28;20016;-66
2021/04/26 02:32:06;;;;;;;4.27;1.33;;;;;;;;;;5091778;28;20024;-67
2021/04/26 02:34:38;;;;;;;6.93;1.63;;;;;;;;;;5087817;28;20089;-67
2021/04/26 02:37:12;;;;;;;4.10;1.70;;;;;;;;;;5087127;28;20269;-67
2021/04/26 02:39:38;;;;;;;3.70;1.50;;;;;;;;;;5088169;28;20718;-67
2021/04/26 02:42:06;;;;;;;3.70;1.40;;;;;;;;;;5084107;28;20600;-67
2021/04/26 02:44:33;;;;;;;6.13;1.70;;;;;;;;;;5084104;28;20281;-67
2021/04/26 02:47:02;;;;;;;2.90;1.30;;;;;;;;;;5083744;28;20883;-67
2021/04/26 02:49:28;;;;;;;8.33;1.50;;;;;;;;;;5080696;28;20436;-67
2021/04/26 02:51:53;;;;;;;6.07;3.17;;;;;;;;;;5085526;28;20382;-67
2021/04/26 02:54:20;;;;;;;3.23;1.50;;;;;;;;;;5084887;28;20030;-67
2021/04/26 02:56:45;;;;;;;3.30;1.57;;;;;;;;;;5082907;28;20020;-67
2021/04/26 02:59:11;;;;;;;4.97;1.57;;;;;;;;;;5090752;28;20278;-67
2021/04/26 03:01:37;;;;;;;7.20;1.63;;;;;;;;;;5087291;28;20024;-67
2021/04/26 03:04:03;;;;;;;4.97;1.97;;;;;;;;;;5086871;28;20044;-67
2021/04/26 03:06:28;;;;;;;3.83;1.50;;;;;;;;;;5089014;28;21227;-67
2021/04/26 03:08:54;;;;;;;4.83;1.40;;;;;;;;;;5089966;28;20361;-67
2021/04/26 03:11:21;;;;;;;2.50;1.23;;;;;;;;;;5085763;28;20027;-67
2021/04/26 03:13:46;;;;;;;3.47;1.40;;;;;;;;;;5090467;28;20020;-67
2021/04/26 03:16:12;;;;;;;6.13;2.07;;;;;;;;;;5090604;28;20262;-67
2021/04/26 03:18:38;;;;;;;5.80;2.17;;;;;;;;;;5079346;28;20023;-67
2021/04/26 03:21:06;;;;;;;3.80;1.70;;;;;;;;;;5083204;28;20460;-67
2021/04/26 03:23:32;;;;;;;3.43;1.60;;;;;;;;;;5087041;28;20282;-67
2021/04/26 03:25:58;;;;;;;3.07;1.40;;;;;;;;;;5088342;28;20353;-67
2021/04/26 03:28:24;;;;;;;4.57;1.87;;;;;;;;;;5086848;28;20028;-67
2021/04/26 03:30:49;;;;;;;3.27;1.30;;;;;;;;;;5088239;28;20642;-67
2021/04/26 03:33:15;;;;;;;4.50;1.70;;;;;;;;;;5091035;28;20099;-67
2021/04/26 03:35:41;;;;;;;3.03;1.37;;;;;;;;;;5088125;28;20016;-67
2021/04/26 03:38:06;;;;;;;6.67;1.70;;;;;;;;;;5089921;28;20468;-67
2021/04/26 03:40:32;;;;;;;3.17;1.57;;;;;;;;;;5085481;28;20293;-67
2021/04/26 03:42:58;;;;;;;4.33;1.50;;;;;;;;;;5083447;28;20380;-67
2021/04/26 03:45:24;;;;;;;4.90;1.70;;;;;;;;;;5085290;28;20390;-67
2021/04/26 03:47:50;;;;;;;5.43;1.53;;;;;;;;;;5087504;28;20416;-67
2021/04/26 03:50:15;;;;;;;4.43;1.70;;;;;;;;;;5079901;28;20510;-67
2021/04/26 03:52:41;;;;;;;4.20;1.70;;;;;;;;;;5090891;28;20016;-67
2021/04/26 03:55:09;;;;;;;8.40;1.77;;;;;;;;;;5090641;28;20024;-67
2021/04/26 03:57:34;;;;;;;2.70;1.37;;;;;;;;;;5089432;28;20271;-67
2021/04/26 03:59:59;;;;;;;4.77;2.00;;;;;;;;;;5090752;28;20289;-67
2021/04/26 04:02:28;;;;;;;2.77;1.47;;;;;;;;;;5087029;28;20121;-67
2021/04/26 04:04:55;;;;;;;5.90;1.80;;;;;;;;;;5093231;28;20055;-67
2021/04/26 04:07:20;;;;;;;4.93;1.87;;;;;;;;;;5088749;28;20262;-67
2021/04/26 04:09:45;;;;;;;5.57;1.90;;;;;;;;;;5086903;28;20270;-67
2021/04/26 04:12:11;;;;;;;3.77;1.40;;;;;;;;;;5094710;28;20024;-67
2021/04/26 04:14:36;;;;;;;6.60;1.90;;;;;;;;;;5086916;28;20016;-67
2021/04/26 04:17:03;;;;;;;3.87;1.70;;;;;;;;;;5078883;28;20345;-67
2021/04/26 04:19:28;;;;;;;5.73;1.90;;;;;;;;;;5087910;28;20380;-67
2021/04/26 04:21:54;;;;;;;5.17;2.20;;;;;;;;;;5094946;28;20273;-67
2021/04/26 04:24:19;;;;;;;4.77;1.90;;;;;;;;;;5095099;28;20023;-67
2021/04/26 04:26:44;;;;;;;4.80;2.00;;;;;;;;;;5088308;28;20035;-67
2021/04/26 04:29:09;;;;;;;6.93;2.47;;;;;;;;;;5093249;28;20028;-67
2021/04/26 04:31:35;;;;;;;6.77;2.20;;;;;;;;;;5087631;28;20028;-67
2021/04/26 04:34:00;;;;;;;5.33;2.07;;;;;;;;;;5084926;28;20111;-67
2021/04/26 04:36:25;;;;;;;7.07;1.80;;;;;;;;;;5089793;28;20020;-67
2021/04/26 04:38:50;;;;;;;4.10;1.70;;;;;;;;;;5090191;28;20053;-67
2021/04/26 04:41:16;;;;;;;6.27;1.80;;;;;;;;;;5089950;28;20476;-67
2021/04/26 04:43:41;;;;;;;4.90;1.83;;;;;;;;;;5093591;28;20020;-67
2021/04/26 04:46:06;;;;;;;4.50;1.80;;;;;;;;;;5087193;28;20050;-67
2021/04/26 04:48:32;;;;;;;4.77;1.60;;;;;;;;;;5082878;28;20028;-67
2021/04/26 04:50:57;;;;;;;8.10;2.07;;;;;;;;;;5091744;28;20023;-67
2021/04/26 04:53:23;;;;;;;3.60;1.70;;;;;;;;;;5093783;28;20056;-67
2021/04/26 04:55:48;;;;;;;7.70;1.90;;;;;;;;;;5084597;28;20050;-68
2021/04/26 04:58:13;;;;;;;5.23;1.50;;;;;;;;;;5084152;28;20012;-69
2021/04/26 05:00:38;;;;;;;5.90;1.63;;;;;;;;;;5087468;28;20068;-69
2021/04/26 05:03:04;;;;;;;5.10;1.40;;;;;;;;;;5087760;28;20074;-69
2021/04/26 05:05:29;;;;;;;3.40;1.30;;;;;;;;;;5067721;28;20493;-70
2021/04/26 05:07:54;;;;;;;3.97;1.10;;;;;;;;;;5067666;28;20029;-70
2021/04/26 05:10:20;;;;;;;5.07;1.50;;;;;;;;;;5068668;28;20078;-70
2021/04/26 05:12:45;;;;;;;3.13;1.10;;;;;;;;;;5068355;28;20033;-70
2021/04/26 05:15:11;;;;;;;4.17;1.50;;;;;;;;;;5067837;28;20056;-71
2021/04/26 05:17:36;;;;;;;4.73;1.00;;;;;;;;;;5061158;28;20045;-72
2021/04/26 05:20:03;;;;;;;4.27;1.07;;;;;;;;;;5063702;28;20012;-71
2021/04/26 05:22:28;;;;;;;3.30;1.20;;;;;;;;;;5071205;28;20017;-71
2021/04/26 05:24:54;;;;;;;4.00;1.50;;;;;;;;;;5070474;28;20101;-71
2021/04/26 05:27:19;;;;;;;3.93;1.30;;;;;;;;;;5063081;28;20028;-72
2021/04/26 05:29:44;;;;;;;6.00;1.77;;;;;;;;;;5071461;28;20020;-72
2021/04/26 05:32:10;;;;;;;6.63;1.60;;;;;;;;;;5066427;28;20016;-73
2021/04/26 05:34:35;;;;;;;3.30;1.50;;;;;;;;;;5070816;28;20029;-73
2021/04/26 05:37:00;;;;;;;4.63;1.60;;;;;;;;;;5065700;28;20492;-71
2021/04/26 05:39:26;;;;;;;7.37;2.93;;;;;;;;;;5062590;28;20067;-70
2021/04/26 05:41:51;;;;;;;5.20;2.20;;;;;;;;;;5063309;28;20028;-71
2021/04/26 05:44:16;;;;;;;4.93;1.37;;;;;;;;;;5070456;28;20042;-70
2021/04/26 05:46:42;;;;;;;4.53;1.40;;;;;;;;;;5064011;28;20481;-71
2021/04/26 05:49:07;;;;;;;3.40;1.23;;;;;;;;;;5067237;28;20036;-71
2021/04/26 05:51:32;;;;;;;3.83;1.20;;;;;;;;;;5067034;28;20512;-71
2021/04/26 05:53:58;;;;;;;5.07;1.53;;;;;;;;;;5067377;28;20027;-72
2021/04/26 05:56:23;;;;;;;3.93;1.30;;;;;;;;;;5069544;28;20023;-72
2021/04/26 05:58:49;;;;;;;4.37;1.37;;;;;;;;;;5062754;28;20025;-72
2021/04/26 06:01:14;;;;;;;3.03;1.10;;;;;;;;;;5063492;28;20021;-72
2021/04/26 06:03:39;;;;;;;4.73;1.73;;;;;;;;;;5066246;28;20052;-71
2021/04/26 06:06:05;;;;;;;2.77;1.10;;;;;;;;;;5092533;28;20103;-72
2021/04/26 06:08:30;;;;;;;3.17;1.37;;;;;;;;;;5089584;28;20027;-71
2021/04/26 06:10:55;;;;;;;3.67;1.53;;;;;;;;;;5086728;28;20028;-72
2021/04/26 06:13:20;;;;;;;5.60;1.40;;;;;;;;;;5086107;28;20127;-72
2021/04/26 06:15:46;;;;;;;4.97;1.40;;;;;;;;;;5092015;28;20016;-74
2021/04/26 06:18:13;;;;;;;3.90;1.00;;;;;;;;;;5087837;28;20483;-73
2021/04/26 06:20:39;;;;;;;2.47;1.10;;;;;;;;;;5090819;28;20035;-73
2021/04/26 06:23:04;;;;;;;5.23;1.60;;;;;;;;;;5081376;28;20027;-72
2021/04/26 06:25:30;;;;;;;4.50;1.20;;;;;;;;;;5083957;28;20055;-73
2021/04/26 06:27:56;;;;;;;4.90;1.30;;;;;;;;;;5089136;28;20023;-73
2021/04/26 06:30:21;;;;;;;3.20;1.10;;;;;;;;;;5086913;28;20023;-72
2021/04/26 06:32:46;;;;;;;4.30;1.20;;;;;;;;;;5074374;28;20012;-73
2021/04/26 06:35:12;;;;;;;3.20;1.37;;;;;;;;;;5088342;28;20107;-72
2021/04/26 06:37:37;;;;;;;6.30;1.27;;;;;;;;;;5076575;28;20364;-72
2021/04/26 06:40:02;;;;;;;4.67;1.27;;;;;;;;;;5087897;28;20023;-72
2021/04/26 06:42:29;;;;;;;4.83;1.20;;;;;;;;;;5090442;28;20376;-73
2021/04/26 06:44:54;;;;;;;6.20;1.50;;;;;;;;;;5092454;28;20043;-73
2021/04/26 06:47:19;;;;;;;6.70;1.50;;;;;;;;;;5091514;28;20428;-73
2021/04/26 06:49:45;;;;;;;4.63;1.50;;;;;;;;;;5091934;28;20031;-72
2021/04/26 06:52:10;;;;;;;4.37;1.23;;;;;;;;;;5092602;28;20027;-74
2021/04/26 06:54:35;;;;;;;4.13;1.10;;;;;;;;;;5091910;28;20020;-73
2021/04/26 06:57:00;;;;;;;7.40;1.23;;;;;;;;;;5092023;28;20380;-73
2021/04/26 06:59:26;;;;;;;3.40;1.40;;;;;;;;;;5083911;28;20036;-73
2021/04/26 07:01:51;;;;;;;3.70;1.10;;;;;;;;;;5090017;28;20549;-74
2021/04/26 07:04:16;;;;;;;3.43;1.03;;;;;;;;;;5088102;28;20154;-73
2021/04/26 07:06:41;;;;;;;4.07;1.07;;;;;;;;;;5084150;28;20488;-73
2021/04/26 07:09:07;;;;;;;4.00;1.27;;;;;;;;;;5079627;28;20028;-74
2021/04/26 07:11:32;;;;;;;3.27;1.27;;;;;;;;;;5082396;28;20024;-74
2021/04/26 07:13:57;;;;;;;3.50;1.00;;;;;;;;;;5083972;28;20027;-75
2021/04/26 07:16:23;;;;;;;4.57;1.30;;;;;;;;;;5091595;28;20017;-74
2021/04/26 07:18:48;;;;;;;5.23;1.10;;;;;;;;;;5086760;28;20028;-74
2021/04/26 07:21:13;;;;;;;3.07;1.00;;;;;;;;;;5076030;28;20035;-74
2021/04/26 07:23:39;;;;;;;3.67;1.00;;;;;;;;;;5089216;28;20063;-73
2021/04/26 07:26:05;;;;;;;5.57;1.20;;;;;;;;;;5083163;28;20032;-74
2021/04/26 07:28:30;;;;;;;3.22;0.90;;;;;;;;;;5085906;28;20036;-73
2021/04/26 07:30:55;;;;;;;5.40;1.20;;;;;;;;;;5082312;28;20028;-72
2021/04/26 07:33:20;;;;;;;4.35;1.35;;;;;;;;;;5079302;28;20024;-72
2021/04/26 07:35:46;;;;;;;3.20;1.05;;;;;;;;;;5084210;28;20027;-72
2021/04/26 07:38:11;;;;;;;2.80;0.90;;;;;;;;;;5074366;28;20029;-72
2021/04/26 07:40:36;;;;;;;2.40;0.98;;;;;;;;;;5085399;28;20032;-71
2021/04/26 07:43:02;;;;;;;3.22;0.80;;;;;;;;;;5091072;28;20491;-71
2021/04/26 07:45:28;;;;;;;2.35;0.75;;;;;;;;;;5091514;28;20039;-71
2021/04/26 07:47:55;;;;;;;2.50;0.73;;;;;;;;;;5089869;28;20024;-72
2021/04/26 07:50:20;;;;;;;4.43;1.00;;;;;;;;;;5091275;28;20055;-72
2021/04/26 07:52:45;;;;;;;2.03;0.85;;;;;;;;;;5091336;28;20028;-73
2021/04/26 07:55:11;;;;;;;5.18;0.80;;;;;;;;;;5076337;28;20104;-75
2021/04/26 07:57:36;;;;;;;2.47;0.90;;;;;;;;;;5082784;28;20026;-73
2021/04/26 08:00:03;;;;;;;4.40;0.70;;;;;;;;;;5084450;28;20024;-73
2021/04/26 08:02:29;;;;;;;4.70;1.27;;;;;;;;;;5081859;28;20411;-73
2021/04/26 08:04:54;;;;;;;4.47;0.82;;;;;;;;;;5084269;28;20048;-74
2021/04/26 08:07:19;;;;;;;2.67;0.88;;;;;;;;;;5089922;28;20122;-74
2021/04/26 08:09:44;;;;;;;1.98;0.70;;;;;;;;;;5082414;28;20106;-73
2021/04/26 08:12:10;;;;;;;2.63;0.85;;;;;;;;;;5090043;28;20036;-74
2021/04/26 08:14:35;;;;;;;2.80;0.75;;;;;;;;;;5087494;28;20061;-74
2021/04/26 08:17:00;;;;;;;1.75;0.82;;;;;;;;;;5090073;28;20056;-73
2021/04/26 08:19:26;;;;;;;3.72;1.38;;;;;;;;;;5085575;28;20028;-73
2021/04/26 08:21:51;;;;;;;2.30;0.90;;;;;;;;;;5090709;28;20103;-76
2021/04/26 08:24:16;;;;;;;1.95;0.85;;;;;;;;;;5091118;28;20047;-76
2021/04/26 08:26:42;;;;;;;2.85;0.88;;;;;;;;;;5091093;28;20040;-75
2021/04/26 08:29:08;;;;;;;2.25;0.82;;;;;;;;;;5090727;28;20024;-76
2021/04/26 08:31:33;;;;;;;1.52;0.63;;;;;;;;;;5091005;28;20043;-75
2021/04/26 08:33:58;;;;;;;1.83;0.77;;;;;;;;;;5090614;28;20506;-76
2021/04/26 08:36:24;;;;;;;2.92;0.90;;;;;;;;;;5086297;28;20020;-75
2021/04/26 08:38:49;;;;;;;4.95;1.02;;;;;;;;;;5083596;28;20476;-75
2021/04/26 08:41:16;;;;;;;2.45;0.90;;;;;;;;;;5091043;28;20043;-76
2021/04/26 08:43:42;;;;;;;1.85;0.77;;;;;;;;;;5089425;28;20479;-74
2021/04/26 08:46:07;;;;;;;4.15;1.27;;;;;;;;;;5094488;28;20055;-73
2021/04/26 08:48:32;;;;;;;5.90;1.00;;;;;;;;;;5095115;28;20020;-75
2021/04/26 08:51:00;;;;;;;3.33;0.90;;;;;;;;;;5096184;28;20038;-75
2021/04/26 08:53:25;;;;;;;2.95;0.90;;;;;;;;;;5085262;28;20024;-74
2021/04/26 08:55:51;;;;;;;3.05;0.80;;;;;;;;;;5079770;28;20123;-74
2021/04/26 08:58:16;;;;;;;1.52;0.80;;;;;;;;;;5091141;28;20082;-74
2021/04/26 09:00:41;;;;;;;3.05;0.90;;;;;;;;;;5094813;28;20034;-74
2021/04/26 09:03:07;;;;;;;3.25;0.85;;;;;;;;;;5094225;28;20077;-72
2021/04/26 09:05:33;;;;;;;5.35;1.33;;;;;;;;;;5094316;28;20032;-73
2021/04/26 09:07:59;;;;;;;4.10;1.02;;;;;;;;;;5089850;28;20038;-74
2021/04/26 09:10:34;;;;;;;4.18;0.88;;;;;;;;;;5091068;28;20036;-74
2021/04/26 09:13:20;;;;;;;4.65;0.90;;;;;;;;;;5093244;28;20107;-73
2021/04/26 09:15:55;;;;;;;2.45;0.90;;;;;;;;;;5081916;28;20472;-74
2021/04/26 09:18:21;;;;;;;2.53;1.10;;;;;;;;;;5088569;28;20097;-73
2021/04/26 09:20:46;;;;;;;2.22;0.95;;;;;;;;;;5087191;28;20024;-74
2021/04/26 09:23:15;;;;;;;1.98;1.00;;;;;;;;;;5093844;28;20020;-73
2021/04/26 09:25:41;;;;;;;3.25;1.20;;;;;;;;;;5094109;28;20024;-74
2021/04/26 09:28:13;;;;;;;3.00;0.90;;;;;;;;;;5084718;28;20032;-75
2021/04/26 09:30:41;;;;;;;3.03;0.90;;;;;;;;;;5093932;28;20460;-74
2021/04/26 09:33:29;;;;;;;2.20;0.95;;;;;;;;;;5084444;28;20024;-73
2021/04/26 09:36:02;;;;;;;7.65;1.30;;;;;;;;;;5089587;28;20032;-74
2021/04/26 09:38:43;;;;;;;2.45;1.00;;;;;;;;;;5093823;28;20044;-73
2021/04/26 09:41:17;;;;;;;2.57;0.90;;;;;;;;;;5092224;28;20391;-75
2021/04/26 09:43:44;;;;;;;1.65;0.80;;;;;;;;;;5070482;28;20067;-74
2021/04/26 09:46:10;;;;;;;3.47;0.90;;;;;;;;;;5093213;28;20031;-73
2021/04/26 09:48:36;;;;;;;1.83;0.90;;;;;;;;;;5093659;28;20039;-74
2021/04/26 09:51:01;;;;;;;4.47;1.13;;;;;;;;;;5093089;28;20032;-74
2021/04/26 09:53:27;;;;;;;4.20;0.70;;;;;;;;;;5093388;28;20104;-75
2021/04/26 09:55:55;;;;;;;3.45;0.90;;;;;;;;;;5093009;28;20135;-74
2021/04/26 09:58:20;;;;;;;2.70;1.27;;;;;;;;;;5085790;28;20024;-73
2021/04/26 10:00:46;;;;;;;1.92;0.90;;;;;;;;;;5092484;28;20031;-74
2021/04/26 10:03:26;;;;;;;2.45;1.10;;;;;;;;;;5095386;28;20032;-82
2021/04/26 10:05:51;;;;;;;5.15;1.15;;;;;;;;;;5052835;28;20056;-76
2021/04/26 10:08:17;;;;;;;2.25;1.00;;;;;;;;;;5053348;28;20098;-75
2021/04/26 10:10:43;;;;;;;1.80;0.90;;;;;;;;;;5053194;28;20369;-74
2021/04/26 10:13:08;;;;;;;1.95;0.93;;;;;;;;;;5052851;28;20473;-75
2021/04/26 10:15:34;;;;;;;2.40;1.10;;;;;;;;;;5052198;28;20446;-74
2021/04/26 10:18:00;;;;;;;2.50;1.00;;;;;;;;;;5052134;28;20025;-71
2021/04/26 10:20:36;;;;;;;5.00;1.27;;;;;;;;;;5052977;28;20013;-72
2021/04/26 10:23:01;;;;;;;4.72;1.23;;;;;;;;;;5052986;28;20021;-73
2021/04/26 10:25:42;;;;;;;3.88;1.10;;;;;;;;;;5052276;28;20432;-71
2021/04/26 10:28:25;;;;;;;2.05;1.10;;;;;;;;;;5052902;28;20028;-72
2021/04/26 10:31:01;;;;;;;2.67;1.05;;;;;;;;;;5056158;28;20071;-74
2021/04/26 10:33:27;;;;;;;3.80;1.20;;;;;;;;;;5051079;28;20021;-74
2021/04/26 10:35:52;;;;;;;2.28;1.08;;;;;;;;;;5037083;28;20024;-74
2021/04/26 10:38:51;;;;;;;4.47;1.27;;;;;;;;;;5045113;28;20021;-74
2021/04/26 10:41:34;;;;;;;5.15;1.27;;;;;;;;;;5007106;28;20036;-74
2021/04/26 10:44:03;;;;;;;3.83;1.42;;;;;;;;;;5049990;28;20036;-73
2021/04/26 10:46:28;;;;;;;2.47;1.00;;;;;;;;;;5047694;28;20013;-73
2021/04/26 10:49:06;;;;;;;2.20;1.00;;;;;;;;;;5047458;28;20037;-73
2021/04/26 10:51:32;;;;;;;4.28;1.10;;;;;;;;;;5046111;28;20376;-72
2021/04/26 10:54:06;;;;;;;2.70;1.20;;;;;;;;;;5049569;28;20087;-73
2021/04/26 10:56:33;;;;;;;2.55;1.00;;;;;;;;;;5047770;28;20017;-72
2021/04/26 10:59:13;;;;;;;3.58;1.13;;;;;;;;;;5057708;28;20508;-72
2021/04/26 11:01:45;;;;;;;3.75;1.20;;;;;;;;;;5050786;28;20488;-71
2021/04/26 11:04:11;;;;;;;3.85;1.20;;;;;;;;;;5039451;28;20049;-71
2021/04/26 11:06:36;;;;;;;3.88;1.23;;;;;;;;;;5062348;28;20024;-71
2021/04/26 11:09:36;;;;;;;3.33;1.30;;;;;;;;;;5067416;28;20028;-71
2021/04/26 11:11:58;;;;;;;;;;;;;;;;;;5064753;28;20366;-70
2021/04/26 11:14:24;;;;;;;3.28;1.15;;;;;;;;;;5068288;28;19923;-69
2021/04/26 11:17:04;;;;;;;3.85;1.58;;;;;;;;;;5069236;28;20039;-68
2021/04/26 11:19:30;;;;;;;3.60;1.50;;;;;;;;;;5069051;28;20103;-68
2021/04/26 11:21:57;;;;;;;4.30;1.45;;;;;;;;;;5073600;28;20131;-68
2021/04/26 11:24:22;;;;;;;5.05;1.70;;;;;;;;;;5064654;28;20024;-68
2021/04/26 11:27:06;;;;;;;4.97;1.57;;;;;;;;;;5066261;28;20440;-68
2021/04/26 11:29:31;;;;;;;4.20;1.80;;;;;;;;;;5064544;28;20121;-68
2021/04/26 11:31:56;;;;;;;3.97;1.50;;;;;;;;;;5071545;28;20105;-67
2021/04/26 11:34:22;;;;;;;6.77;1.77;;;;;;;;;;5067317;28;20686;-68
2021/04/26 11:37:03;;;;;;;3.90;1.60;;;;;;;;;;5065451;28;20021;-67
2021/04/26 11:39:47;;;;;;;4.07;1.63;;;;;;;;;;5056323;28;20020;-68
2021/04/26 11:42:20;;;;;;;3.10;1.60;;;;;;;;;;5058804;28;20032;-67
2021/04/26 11:44:45;;;;;;;4.30;1.50;;;;;;;;;;5067994;28;20412;-67
2021/04/26 11:47:14;;;;;;;5.50;1.90;;;;;;;;;;5067999;28;20464;-67
2021/04/26 11:49:42;;;;;;;3.37;1.60;;;;;;;;;;5076072;28;20092;-68
2021/04/26 11:52:12;;;;;;;3.87;1.50;;;;;;;;;;5068379;28;20488;-68
2021/04/26 11:54:38;;;;;;;3.43;1.60;;;;;;;;;;5068422;28;20159;-68
2021/04/26 11:57:05;;;;;;;4.75;1.58;;;;;;;;;;5068606;28;20546;-68
2021/04/26 11:59:30;;;;;;;5.13;1.42;;;;;;;;;;5067454;28;20033;-68
2021/04/26 12:01:56;;;;;;;4.75;1.50;;;;;;;;;;5064294;28;20032;-68
2021/04/26 12:04:36;;;;;;;3.65;1.50;;;;;;;;;;5063636;28;20642;-68
2021/04/26 12:07:01;;;;;;;3.03;1.48;;;;;;;;;;5065332;28;20060;-67
2021/04/26 12:09:27;;;;;;;3.47;1.50;;;;;;;;;;5064193;28;20063;-67
2021/04/26 12:11:59;;;;;;;3.08;1.30;;;;;;;;;;5066015;28;20040;-67
2021/04/26 12:14:24;;;;;;;3.92;1.55;;;;;;;;;;5068805;28;20024;-68
2021/04/26 12:16:49;;;;;;;3.92;1.50;;;;;;;;;;5071157;28;20131;-68
2021/04/26 12:19:15;;;;;;;3.35;1.45;;;;;;;;;;5091341;28;20043;-68
2021/04/26 12:21:40;;;;;;;4.10;1.60;;;;;;;;;;5091884;28;20115;-68
2021/04/26 12:24:06;;;;;;;3.67;1.40;;;;;;;;;;5091133;28;20032;-68
2021/04/26 12:26:31;;;;;;;2.80;1.48;;;;;;;;;;5090572;28;20031;-68
2021/04/26 12:28:56;;;;;;;3.08;1.50;;;;;;;;;;5096576;28;20063;-68
2021/04/26 12:31:23;;;;;;;5.53;2.13;;;;;;;;;;5089655;28;20463;-68
2021/04/26 12:33:49;;;;;;;8.93;1.63;;;;;;;;;;5072293;28;20032;-67
2021/04/26 12:36:15;;;;;;;5.97;1.50;;;;;;;;;;5091071;28;20133;-68
2021/04/26 12:38:46;;;;;;;3.75;1.60;;;;;;;;;;5091871;28;20115;-68
2021/04/26 12:41:12;;;;;;;2.75;1.50;;;;;;;;;;5091240;28;20529;-68
2021/04/26 12:43:39;;;;;;;8.40;1.60;;;;;;;;;;5092180;28;20372;-68
2021/04/26 12:46:06;;;;;;;4.22;1.58;;;;;;;;;;5091412;28;20032;-68
2021/04/26 12:48:32;;;;;;;6.30;1.70;;;;;;;;;;5091047;28;20024;-68
2021/04/26 12:50:58;;;;;;;3.95;1.45;;;;;;;;;;5090681;28;20588;-68
2021/04/26 12:53:26;;;;;;;3.50;1.42;;;;;;;;;;5091363;28;20113;-68
2021/04/26 12:55:54;;;;;;;2.50;1.50;;;;;;;;;;5091346;28;20460;-68
2021/04/26 12:58:26;;;;;;;4.32;1.40;;;;;;;;;;5091238;28;20063;-68
2021/04/26 13:01:01;;;;;;;3.25;1.40;;;;;;;;;;5088939;28;20036;-68
2021/04/26 13:03:29;;;;;;;3.55;1.50;;;;;;;;;;5090953;28;20369;-67
2021/04/26 13:06:09;;;;;;;5.68;1.50;;;;;;;;;;5090992;28;20020;-67
2021/04/26 13:08:35;;;;;;;3.78;1.50;;;;;;;;;;5087656;28;20109;-67
2021/04/26 13:11:01;;;;;;;2.75;1.40;;;;;;;;;;5090618;28;20139;-67
2021/04/26 13:13:28;;;;;;;4.93;1.50;;;;;;;;;;5090402;28;20024;-68
2021/04/26 13:15:53;;;;;;;3.22;1.35;;;;;;;;;;5089808;28;20103;-67
2021/04/26 13:18:20;;;;;;;3.58;1.50;;;;;;;;;;5089217;28;20103;-67
2021/04/26 13:20:47;;;;;;;5.85;1.40;;;;;;;;;;5089950;28;20065;-67
2021/04/26 13:23:14;;;;;;;4.72;1.30;;;;;;;;;;5090447;28;20020;-66
2021/04/26 13:25:39;;;;;;;6.57;1.50;;;;;;;;;;5089682;28;20078;-66
2021/04/26 13:28:04;;;;;;;2.90;1.60;;;;;;;;;;5090442;28;20438;-66
2021/04/26 13:30:29;;;;;;;3.15;1.20;;;;;;;;;;5090622;28;20042;-66
2021/04/26 13:32:55;;;;;;;3.03;1.20;;;;;;;;;;5089790;28;20032;-66
2021/04/26 13:35:21;;;;;;;6.60;1.60;;;;;;;;;;5090776;28;20469;-66
2021/04/26 13:37:46;;;;;;;3.38;1.17;;;;;;;;;;5090257;28;20516;-66
2021/04/26 13:40:12;;;;;;;2.50;1.20;;;;;;;;;;5089861;28;20115;-66
2021/04/26 13:42:37;;;;;;;3.00;1.30;;;;;;;;;;5087514;28;20020;-66
2021/04/26 13:45:03;;;;;;;2.65;1.40;;;;;;;;;;5090050;28;20062;-67
2021/04/26 13:47:28;;;;;;;3.38;1.40;;;;;;;;;;5089235;28;20032;-68
2021/04/26 13:49:54;;;;;;;3.70;1.70;;;;;;;;;;5088121;28;20027;-67
2021/04/26 13:52:19;;;;;;;4.05;1.45;;;;;;;;;;5089289;28;20039;-67
2021/04/26 13:54:44;;;;;;;6.63;1.70;;;;;;;;;;5087079;28;20078;-67
2021/04/26 13:57:10;;;;;;;2.80;1.47;;;;;;;;;;5087210;28;20466;-67
2021/04/26 13:59:35;;;;;;;6.03;1.60;;;;;;;;;;5079975;28;20551;-67
2021/04/26 14:02:00;;;;;;;2.43;1.30;;;;;;;;;;5084844;28;20527;-67
2021/04/26 14:04:25;;;;;;;3.50;1.50;;;;;;;;;;5082128;28;20429;-68
2021/04/26 14:06:51;;;;;;;4.57;2.00;;;;;;;;;;5086821;28;20059;-67
2021/04/26 14:09:16;;;;;;;3.77;1.77;;;;;;;;;;5086347;28;20426;-66
2021/04/26 14:11:46;;;;;;;6.50;1.90;;;;;;;;;;5086499;28;20024;-66
2021/04/26 14:14:12;;;;;;;3.27;1.80;;;;;;;;;;5089610;28;20115;-66
2021/04/26 14:16:37;;;;;;;3.80;1.67;;;;;;;;;;5085956;28;20139;-66
2021/04/26 14:19:03;;;;;;;3.42;1.38;;;;;;;;;;5090119;28;20123;-66
2021/04/26 14:21:28;;;;;;;4.75;1.60;;;;;;;;;;5087032;28;20034;-66
2021/04/26 14:23:53;;;;;;;4.22;1.40;;;;;;;;;;5083581;28;20028;-66
2021/04/26 14:26:19;;;;;;;5.90;1.80;;;;;;;;;;5087112;28;20036;-66
2021/04/26 14:28:44;;;;;;;5.57;1.85;;;;;;;;;;5087462;28;20035;-66
2021/04/26 14:31:09;;;;;;;4.97;1.70;;;;;;;;;;5088521;28;20040;-66
2021/04/26 14:33:35;;;;;;;3.63;1.70;;;;;;;;;;5088300;28;20031;-66
2021/04/26 14:36:00;;;;;;;3.72;1.60;;;;;;;;;;5085758;28;20031;-66
2021/04/26 14:38:25;;;;;;;3.05;1.60;;;;;;;;;;5080740;28;20111;-66
2021/04/26 14:40:51;;;;;;;6.75;1.92;;;;;;;;;;5085170;28;20039;-66
2021/04/26 14:43:16;;;;;;;6.28;1.70;;;;;;;;;;5087220;28;20035;-66
2021/04/26 14:45:42;;;;;;;3.60;1.80;;;;;;;;;;5088502;28;20081;-66